Forside
METAR-TAF:

METAR-TAF

Lufthavne :

Flughafen Lübeck

Lübeck, Tyskland

Breddekreds: 53-49N, længdekreds: 010-42E, højde: 14 m

Aktuelle vejr

Denne rapport blev lavet for 6 timer og 27 minutter siden, kl. 18:50 UTC
Vind 5 kt fra syd
Temperatur 17°C
Fugtighed 82%
Tryk 1014 hPa
Sigt 10 km eller mere
Nogle få skyer i en højde af 4300 ft

METAR: EDHL 031850Z 17005KT 9999 FEW043 17/14 Q1014

Tid: 03:17 (01:17 UTC)

Vejrudsigter

Denne rapport blev lavet for 8 timer og 17 minutter siden, kl. 17:00 UTC
Foreløbig gælder fra 03 på 18 UTC til 03 på 21 UTC
Vind 7 kt fra vestsydvest
Sigt 10 km eller mere
Spredte skyer i en højde af 3000 ft

TAF: EDHL 031700Z 0318/0321 24007KT 9999 SCT030

Vejrobservationer og prognoser fra mere end 4000 lufthavne (METAR og TAF).

De gule og røde prikker repræsenterer de meteorologiske stationer.

Flyt musen over at se navnet på stationen.

Så klik over at se vejr observationer og prognoser.

At skifte det kort: Klik på de grønne knapper med et sort kors for at zoome ind; på den grønne knap med en bindestreg for at zoome ud; eller på de grønne pile for tilstødende kort.


METAR-TAF: